Time;durP1;ratioP1;P1;durP2;ratioP2;P2;SDS_P1;SDS_P2;PMS_P1;PMS_P2;Temp;Humidity;BMP_temperature;BMP_pressure;BME280_temperature;BME280_humidity;BME280_pressure;Samples;Min_cycle;Max_cycle;Signal;HPM_P1;HPM_P2
2021/03/17 00:01:57;;;;;;;2.23;0.80;;;20.30;48.90;;;;;;10375563;28;20229;-28
2021/03/17 00:07:19;;;;;;;1.43;0.90;;;20.20;49.10;;;;;;10375353;28;20203;-29
2021/03/17 00:12:41;;;;;;;1.10;0.57;;;20.20;49.10;;;;;;10373553;28;20755;-27
2021/03/17 00:18:04;;;;;;;1.17;0.70;;;20.20;49.00;;;;;;10374245;28;20208;-28
2021/03/17 00:23:25;;;;;;;1.13;0.70;;;20.20;49.00;;;;;;10372541;28;20218;-29
2021/03/17 00:28:47;;;;;;;1.17;0.70;;;20.10;49.10;;;;;;10372592;28;20939;-26
2021/03/17 00:34:09;;;;;;;0.87;0.70;;;20.20;49.30;;;;;;10371682;28;20263;-28
2021/03/17 00:39:31;;;;;;;1.00;0.60;;;20.20;49.10;;;;;;10371994;28;20242;-28
2021/03/17 00:44:52;;;;;;;1.27;0.80;;;20.20;49.10;;;;;;10371788;28;20224;-30
2021/03/17 00:50:17;;;;;;;2.43;1.00;;;20.20;49.10;;;;;;10371836;28;20669;-30
2021/03/17 00:55:39;;;;;;;2.00;0.90;;;20.10;49.20;;;;;;10371318;28;20198;-28
2021/03/17 01:01:00;;;;;;;0.83;0.60;;;20.10;49.20;;;;;;10371337;28;20225;-29
2021/03/17 01:06:23;;;;;;;1.17;0.53;;;20.20;49.10;;;;;;10370940;28;20206;-26
2021/03/17 01:11:45;;;;;;;1.13;0.60;;;20.10;49.10;;;;;;10372445;28;20225;-30
2021/03/17 01:17:07;;;;;;;1.90;0.67;;;20.10;49.20;;;;;;10371815;28;20190;-30
2021/03/17 01:22:29;;;;;;;2.10;0.70;;;20.10;49.30;;;;;;10370209;28;20222;-30
2021/03/17 01:27:51;;;;;;;1.40;0.60;;;20.10;49.20;;;;;;10369965;28;20200;-31
2021/03/17 01:33:14;;;;;;;0.73;0.63;;;20.10;49.10;;;;;;10369670;28;20698;-25
2021/03/17 01:38:36;;;;;;;0.60;0.50;;;20.10;49.10;;;;;;10367974;28;20216;-24
2021/03/17 01:43:58;;;;;;;1.47;0.70;;;20.10;49.30;;;;;;10368772;28;20228;-30
2021/03/17 01:49:20;;;;;;;0.90;0.50;;;20.00;49.40;;;;;;10364699;28;20207;-26
2021/03/17 01:54:43;;;;;;;1.33;0.90;;;20.00;49.30;;;;;;10370892;28;20740;-27
2021/03/17 02:00:07;;;;;;;1.10;0.53;;;20.10;49.10;;;;;;10371065;28;20682;-27
2021/03/17 02:05:33;;;;;;;1.90;0.90;;;20.10;49.20;;;;;;10369694;28;20194;-28
2021/03/17 02:10:55;;;;;;;1.43;0.80;;;20.00;49.30;;;;;;10369636;28;20210;-27
2021/03/17 02:16:23;;;;;;;1.10;0.70;;;20.00;49.30;;;;;;10369250;28;20268;-25
2021/03/17 02:22:15;;;;;;;1.67;0.53;;;20.10;49.20;;;;;;10367141;28;20231;-30
2021/03/17 02:28:12;;;;;;;0.90;0.70;;;20.10;49.20;;;;;;10368958;28;20198;-27
2021/03/17 02:33:47;;;;;;;0.60;0.47;;;20.00;49.30;;;;;;10369642;28;20578;-29
2021/03/17 02:39:13;;;;;;;0.90;0.60;;;20.00;49.50;;;;;;10369847;28;20205;-28
2021/03/17 02:44:44;;;;;;;1.23;0.50;;;20.00;49.40;;;;;;10369411;28;20210;-27
2021/03/17 02:50:10;;;;;;;0.57;0.50;;;20.00;49.30;;;;;;10361890;28;20198;-28
2021/03/17 02:55:37;;;;;;;0.70;0.60;;;19.90;49.30;;;;;;10368215;28;20191;-29
2021/03/17 03:00:59;;;;;;;0.50;0.50;;;19.90;49.50;;;;;;10377247;28;20221;-27
2021/03/17 03:06:22;;;;;;;0.90;0.40;;;20.00;49.50;;;;;;10378139;28;20202;-26
2021/03/17 03:11:44;;;;;;;0.97;0.53;;;20.00;49.40;;;;;;10375744;28;20228;-25
2021/03/17 03:17:07;;;;;;;1.20;0.70;;;19.90;49.30;;;;;;10377068;28;20202;-28
2021/03/17 03:22:30;;;;;;;0.60;0.40;;;19.90;49.40;;;;;;10377139;28;20721;-27
2021/03/17 03:27:53;;;;;;;1.13;0.60;;;19.90;49.50;;;;;;10377096;28;20198;-25
2021/03/17 03:33:15;;;;;;;0.90;0.70;;;20.00;49.50;;;;;;10419095;23;20230;-25
2021/03/17 03:38:37;;;;;;;2.30;0.50;;;20.00;49.30;;;;;;10452635;28;20673;-25
2021/03/17 03:43:59;;;;;;;1.57;0.60;;;19.90;49.30;;;;;;10441313;28;20648;-25
2021/03/17 03:49:22;;;;;;;1.80;0.70;;;19.90;49.50;;;;;;10451474;28;20208;-25
2021/03/17 03:54:51;;;;;;;0.80;0.50;;;19.90;49.50;;;;;;10456931;28;20213;-25
2021/03/17 04:00:16;;;;;;;1.10;0.50;;;19.90;49.40;;;;;;10456308;28;20564;-25
2021/03/17 04:05:40;;;;;;;0.90;0.50;;;19.90;49.30;;;;;;10453049;28;20219;-25
2021/03/17 04:11:04;;;;;;;0.93;0.60;;;20.00;49.50;;;;;;10454815;28;20209;-24
2021/03/17 04:16:28;;;;;;;1.43;0.60;;;19.90;49.50;;;;;;10456783;28;20678;-26
2021/03/17 04:21:52;;;;;;;0.60;0.30;;;19.90;49.50;;;;;;10375794;28;20274;-26
2021/03/17 04:27:15;;;;;;;0.83;0.50;;;19.90;49.30;;;;;;10449350;28;20205;-26
2021/03/17 04:32:39;;;;;;;0.63;0.40;;;19.90;49.40;;;;;;10455834;28;20692;-26
2021/03/17 04:38:02;;;;;;;0.87;0.70;;;19.90;49.40;;;;;;10454879;28;20189;-25
2021/03/17 04:43:25;;;;;;;1.33;0.53;;;19.90;49.40;;;;;;10455629;28;20232;-25
2021/03/17 04:48:47;;;;;;;0.73;0.40;;;20.00;49.10;;;;;;10447988;28;20204;-25
2021/03/17 04:54:10;;;;;;;0.70;0.40;;;20.20;48.90;;;;;;10454319;28;20208;-25
2021/03/17 04:59:35;;;;;;;0.83;0.47;;;20.30;48.70;;;;;;10453943;28;20201;-25
2021/03/17 05:04:58;;;;;;;1.03;0.60;;;20.30;48.50;;;;;;10454064;28;20405;-26
2021/03/17 05:10:22;;;;;;;0.87;0.40;;;20.40;48.40;;;;;;10454168;28;20196;-26
2021/03/17 05:15:46;;;;;;;0.80;0.40;;;20.30;48.60;;;;;;10455458;28;20224;-27
2021/03/17 05:21:10;;;;;;;1.50;0.60;;;20.20;48.70;;;;;;10443079;28;20221;-27
2021/03/17 05:26:34;;;;;;;1.13;0.60;;;20.20;48.70;;;;;;10454901;28;20733;-27
2021/03/17 05:31:57;;;;;;;0.83;0.40;;;20.30;48.50;;;;;;10452285;28;20224;-26
2021/03/17 05:37:19;;;;;;;0.77;0.43;;;20.40;48.30;;;;;;10442391;28;20211;-26
2021/03/17 05:42:41;;;;;;;0.50;0.40;;;20.50;48.20;;;;;;10452533;28;20712;-25
2021/03/17 05:48:05;;;;;;;2.10;0.70;;;20.50;48.10;;;;;;10420332;28;20204;-26
2021/03/17 05:53:27;;;;;;;0.83;0.47;;;20.50;48.00;;;;;;10408902;28;20223;-25
2021/03/17 05:58:50;;;;;;;2.17;0.60;;;20.60;47.90;;;;;;10410554;28;20241;-26
2021/03/17 06:04:16;;;;;;;0.97;0.40;;;20.60;47.90;;;;;;10411358;28;20225;-26
2021/03/17 06:09:38;;;;;;;3.65;1.10;;;20.70;47.80;;;;;;10410813;28;20425;-27
2021/03/17 06:15:01;;;;;;;2.77;1.30;;;20.70;43.50;;;;;;10406951;28;20353;-25
2021/03/17 06:20:23;;;;;;;3.77;1.33;;;20.20;38.00;;;;;;10426920;28;20228;-25
2021/03/17 06:25:47;;;;;;;5.20;1.30;;;19.90;37.30;;;;;;10409584;28;20201;-25
2021/03/17 06:31:10;;;;;;;2.23;1.20;;;19.70;38.10;;;;;;10437249;28;20246;-25
2021/03/17 06:36:33;;;;;;;4.33;1.27;;;19.70;37.30;;;;;;10450274;28;20255;-25
2021/03/17 06:41:55;;;;;;;3.77;1.40;;;19.60;37.00;;;;;;10408080;28;20222;-25
2021/03/17 06:47:19;;;;;;;5.90;1.40;;;19.60;37.30;;;;;;10377457;28;20209;-26
2021/03/17 06:52:43;;;;;;;4.77;1.47;;;19.60;38.00;;;;;;10408320;28;20206;-25
2021/03/17 06:58:05;;;;;;;2.53;1.23;;;19.60;37.60;;;;;;10409474;28;20201;-25
2021/03/17 07:03:27;;;;;;;4.20;1.47;;;19.60;37.00;;;;;;10408352;28;20223;-25
2021/03/17 07:08:49;;;;;;;5.07;1.37;;;19.60;36.30;;;;;;10436457;28;20276;-24
2021/03/17 07:14:11;;;;;;;3.70;1.20;;;19.70;36.10;;;;;;10443190;28;20209;-25
2021/03/17 07:19:35;;;;;;;2.80;1.07;;;19.70;35.70;;;;;;10439754;28;20450;-25
2021/03/17 07:25:01;;;;;;;3.67;1.10;;;19.60;35.70;;;;;;10445174;28;20726;-26
2021/03/17 07:30:24;;;;;;;3.20;0.90;;;19.70;35.30;;;;;;10434146;28;20678;-25
2021/03/17 07:35:46;;;;;;;2.80;1.00;;;19.70;35.10;;;;;;10427489;28;20209;-25
2021/03/17 07:41:08;;;;;;;3.40;1.00;;;19.80;34.60;;;;;;10400944;28;20230;-24
2021/03/17 07:46:31;;;;;;;3.70;0.90;;;20.00;34.70;;;;;;10445779;28;20208;-25
2021/03/17 07:51:54;;;;;;;4.53;1.37;;;20.20;34.60;;;;;;10455816;28;20688;-25
2021/03/17 07:57:17;;;;;;;2.37;0.70;;;20.30;34.10;;;;;;10456865;28;20568;-25
2021/03/17 08:02:39;;;;;;;2.27;0.93;;;20.40;34.40;;;;;;10430878;28;20243;-25
2021/03/17 08:08:01;;;;;;;3.43;1.07;;;20.50;35.10;;;;;;10410454;28;20222;-25
2021/03/17 08:13:24;;;;;;;2.53;1.00;;;20.50;34.50;;;;;;10409965;28;20210;-26
2021/03/17 08:18:48;;;;;;;4.57;1.37;;;20.50;34.50;;;;;;10418721;28;20204;-27
2021/03/17 08:24:11;;;;;;;3.70;1.33;;;20.50;34.30;;;;;;10435794;28;20239;-25
2021/03/17 08:29:37;;;;;;;5.87;1.10;;;20.60;34.40;;;;;;10419084;28;20205;-26
2021/03/17 08:34:59;;;;;;;5.60;0.93;;;20.80;34.20;;;;;;10409694;28;20242;-25
2021/03/17 08:40:46;;;;;;;3.07;1.17;;;21.20;34.20;;;;;;10408460;28;20202;-26
2021/03/17 08:46:10;;;;;;;3.10;1.20;;;22.00;33.10;;;;;;10444388;28;20201;-27
2021/03/17 08:52:09;;;;;;;3.53;0.90;;;22.70;31.60;;;;;;10447803;28;20213;-26
2021/03/17 08:57:53;;;;;;;4.93;0.97;;;24.00;30.00;;;;;;10449911;28;20197;-27
2021/03/17 09:03:46;;;;;;;3.90;1.00;;;24.70;29.20;;;;;;10448676;28;20217;-25
2021/03/17 09:09:17;;;;;;;3.43;0.97;;;25.70;28.20;;;;;;10448195;28;20203;-25
2021/03/17 09:14:39;;;;;;;6.53;1.07;;;23.60;30.00;;;;;;10448312;28;20699;-25
2021/03/17 09:20:28;;;;;;;3.33;1.20;;;22.30;31.40;;;;;;10435000;28;20593;-25
2021/03/17 09:25:51;;;;;;;3.33;0.97;;;21.60;32.80;;;;;;10436813;28;20245;-25
2021/03/17 09:36:23;;;;;;;3.13;1.03;;;21.00;34.10;;;;;;10395201;23;20249;-23
2021/03/17 09:41:47;;;;;;;2.73;1.00;;;20.90;34.50;;;;;;10373776;28;20302;-23
2021/03/17 09:47:09;;;;;;;1.40;0.90;;;20.70;34.80;;;;;;10419726;28;20209;-23
2021/03/17 09:52:31;;;;;;;4.03;1.00;;;20.60;35.40;;;;;;10398089;28;20218;-22
2021/03/17 09:57:58;;;;;;;5.00;1.13;;;20.50;35.40;;;;;;10369477;28;20244;-23
2021/03/17 10:03:20;;;;;;;5.67;1.40;;;20.60;35.10;;;;;;10362929;28;20697;-23
2021/03/17 10:08:42;;;;;;;3.17;1.00;;;20.60;35.20;;;;;;10362729;28;20196;-23
2021/03/17 10:14:11;;;;;;;3.33;1.37;;;20.60;34.80;;;;;;10363368;28;20214;-22
2021/03/17 10:19:33;;;;;;;3.63;1.20;;;20.60;34.60;;;;;;10412139;28;20699;-23
2021/03/17 10:24:57;;;;;;;2.17;1.03;;;20.70;35.20;;;;;;10375305;28;20733;-21
2021/03/17 10:30:27;;;;;;;2.17;1.00;;;20.70;35.20;;;;;;10390067;28;20203;-23
2021/03/17 10:35:49;;;;;;;2.63;1.17;;;20.70;35.70;;;;;;10404132;28;20717;-23
2021/03/17 10:41:12;;;;;;;2.43;1.33;;;20.60;34.70;;;;;;10406154;28;20201;-22
2021/03/17 10:46:33;;;;;;;3.50;2.40;;;20.60;34.80;;;;;;10430729;28;20197;-23
2021/03/17 10:51:57;;;;;;;5.83;2.37;;;20.70;34.90;;;;;;10450473;28;20221;-23
2021/03/17 10:57:21;;;;;;;7.87;2.20;;;20.70;34.80;;;;;;10450119;28;20200;-23
2021/03/17 11:02:43;;;;;;;6.20;1.80;;;20.70;34.70;;;;;;10441269;28;20229;-22
2021/03/17 11:08:10;;;;;;;2.70;1.47;;;20.60;34.40;;;;;;10406787;28;20204;-24
2021/03/17 11:13:37;;;;;;;5.87;1.77;;;20.60;34.70;;;;;;10402969;28;20632;-23
2021/03/17 11:19:01;;;;;;;3.20;1.50;;;20.60;34.80;;;;;;10425102;28;20672;-23
2021/03/17 11:24:22;;;;;;;5.43;1.23;;;20.70;35.10;;;;;;10424086;28;20222;-21
2021/03/17 11:29:52;;;;;;;2.90;1.40;;;20.60;35.30;;;;;;10417785;28;20225;-23
2021/03/17 11:35:14;;;;;;;2.70;1.20;;;20.60;35.20;;;;;;10416458;28;20228;-23
2021/03/17 11:40:36;;;;;;;4.10;1.40;;;20.70;35.30;;;;;;10417283;28;20339;-24
2021/03/17 11:46:00;;;;;;;3.03;0.90;;;20.70;38.50;;;;;;10413671;28;20725;-23
2021/03/17 11:51:23;;;;;;;2.57;0.93;;;20.50;40.00;;;;;;10375691;28;20196;-23
2021/03/17 11:56:45;;;;;;;3.03;0.80;;;20.40;40.80;;;;;;10376653;28;20210;-23
2021/03/17 12:02:07;;;;;;;2.13;0.97;;;20.60;41.00;;;;;;10377093;28;20233;-23
2021/03/17 12:07:29;;;;;;;4.13;1.27;;;21.10;40.40;;;;;;10415640;28;20274;-23
2021/03/17 12:12:50;;;;;;;5.53;0.93;;;21.60;40.00;;;;;;10415297;28;20209;-22
2021/03/17 12:18:13;;;;;;;2.57;1.23;;;21.80;39.80;;;;;;10429257;28;20695;-22
2021/03/17 12:23:36;;;;;;;4.43;1.30;;;22.00;39.80;;;;;;10444148;28;20676;-23
2021/03/17 12:28:58;;;;;;;5.50;1.33;;;22.20;39.10;;;;;;10454614;28;20201;-22
2021/03/17 12:34:20;;;;;;;2.77;1.10;;;22.50;38.80;;;;;;10448929;28;20371;-23
2021/03/17 12:39:42;;;;;;;1.80;1.20;;;22.70;38.60;;;;;;10436337;28;20550;-23
2021/03/17 12:45:05;;;;;;;3.10;1.97;;;22.90;38.60;;;;;;10453486;28;20227;-23
2021/03/17 12:50:28;;;;;;;3.63;1.70;;;22.40;39.00;;;;;;10392021;28;20202;-22
2021/03/17 12:55:50;;;;;;;5.17;1.60;;;22.20;39.70;;;;;;10403673;28;20249;-22
2021/03/17 13:01:11;;;;;;;2.40;1.37;;;22.50;39.50;;;;;;10412957;28;20676;-22
2021/03/17 13:06:34;;;;;;;3.93;1.33;;;22.80;39.30;;;;;;10402613;28;20236;-23
2021/03/17 13:11:56;;;;;;;2.87;1.30;;;23.00;39.10;;;;;;10412805;28;20214;-21
2021/03/17 13:17:19;;;;;;;3.37;1.20;;;23.20;39.10;;;;;;10387739;28;20193;-22
2021/03/17 13:22:42;;;;;;;1.80;1.20;;;23.40;38.90;;;;;;10432275;28;20228;-22
2021/03/17 13:28:06;;;;;;;2.63;1.37;;;23.50;38.90;;;;;;10445726;28;20197;-22
2021/03/17 13:33:28;;;;;;;1.60;1.03;;;23.50;39.00;;;;;;10370987;28;20319;-23
2021/03/17 13:38:50;;;;;;;1.77;1.30;;;23.60;39.00;;;;;;10392061;28;20208;-23
2021/03/17 13:44:12;;;;;;;2.53;1.43;;;23.70;39.00;;;;;;10410154;28;20218;-23
2021/03/17 13:49:34;;;;;;;3.67;1.67;;;23.70;39.00;;;;;;10420446;28;20413;-23
2021/03/17 13:54:57;;;;;;;3.63;1.77;;;23.20;39.30;;;;;;10410812;28;20263;-23
2021/03/17 14:00:20;;;;;;;3.27;1.20;;;23.00;39.90;;;;;;10411040;28;20224;-22
2021/03/17 14:05:42;;;;;;;3.73;1.47;;;22.80;40.30;;;;;;10410141;28;20222;-23
2021/03/17 14:11:04;;;;;;;2.63;1.60;;;22.70;40.70;;;;;;10410603;28;20259;-23
2021/03/17 14:16:26;;;;;;;3.73;1.43;;;22.60;41.10;;;;;;10410105;28;20248;-23
2021/03/17 14:21:47;;;;;;;2.40;1.20;;;22.60;41.30;;;;;;10435870;28;20232;-22
2021/03/17 14:27:11;;;;;;;1.80;1.30;;;22.60;41.50;;;;;;10451017;28;20219;-23
2021/03/17 14:32:32;;;;;;;5.73;1.90;;;22.50;41.60;;;;;;10449970;28;20223;-23
2021/03/17 14:37:54;;;;;;;2.67;1.50;;;22.50;41.90;;;;;;10413885;28;20197;-22
2021/03/17 14:43:16;;;;;;;3.87;1.50;;;22.50;42.00;;;;;;10411577;28;20225;-22
2021/03/17 14:48:38;;;;;;;3.17;1.53;;;22.50;41.90;;;;;;10445131;28;20193;-22
2021/03/17 14:54:00;;;;;;;2.27;1.27;;;22.70;42.30;;;;;;10455917;28;20213;-22
2021/03/17 14:59:22;;;;;;;1.83;1.17;;;22.90;41.40;;;;;;10457975;28;20243;-22
2021/03/17 15:04:44;;;;;;;2.10;1.40;;;23.20;41.10;;;;;;10435154;28;20287;-23
2021/03/17 15:10:08;;;;;;;2.37;1.23;;;23.30;40.90;;;;;;10416733;28;20201;-23
2021/03/17 15:15:31;;;;;;;2.77;1.43;;;23.50;40.80;;;;;;10416467;28;20214;-23
2021/03/17 15:20:52;;;;;;;1.93;1.17;;;23.50;40.70;;;;;;10441957;28;20231;-22
2021/03/17 15:26:14;;;;;;;1.97;1.20;;;23.60;41.20;;;;;;10387393;28;20224;-23
2021/03/17 15:31:36;;;;;;;3.70;1.43;;;23.60;40.50;;;;;;10423438;28;20201;-23
2021/03/17 15:36:58;;;;;;;2.00;1.17;;;23.00;41.20;;;;;;10413771;28;20236;-21
2021/03/17 15:42:20;;;;;;;1.97;1.30;;;22.70;42.00;;;;;;10434282;28;20209;-22
2021/03/17 15:47:42;;;;;;;4.00;1.60;;;22.40;42.70;;;;;;10445660;28;20622;-23
2021/03/17 15:53:04;;;;;;;4.67;1.40;;;22.10;43.20;;;;;;10451348;23;20712;-29
2021/03/17 15:58:26;;;;;;;3.40;1.40;;;21.90;43.70;;;;;;10410493;28;20569;-27
2021/03/17 16:03:48;;;;;;;3.13;1.30;;;21.80;44.10;;;;;;10442514;28;20232;-27
2021/03/17 16:09:10;;;;;;;2.30;1.13;;;21.70;44.30;;;;;;10455254;28;20268;-28
2021/03/17 16:14:32;;;;;;;2.30;1.20;;;21.80;44.30;;;;;;10442569;28;20222;-28
2021/03/17 16:19:54;;;;;;;1.83;1.30;;;21.70;44.20;;;;;;10424945;28;20276;-30
2021/03/17 16:25:17;;;;;;;1.87;0.83;;;21.70;44.30;;;;;;10414359;28;20704;-28
2021/03/17 16:30:40;;;;;;;1.90;1.00;;;21.60;44.40;;;;;;10413862;28;20525;-28
2021/03/17 16:36:06;;;;;;;2.93;1.10;;;21.60;44.80;;;;;;10418206;28;20212;-27
2021/03/17 16:41:28;;;;;;;1.87;1.00;;;21.60;44.80;;;;;;10374115;28;20218;-27
2021/03/17 16:46:50;;;;;;;2.00;1.13;;;21.50;45.00;;;;;;10425222;28;20635;-28
2021/03/17 16:52:13;;;;;;;1.40;1.20;;;21.50;45.20;;;;;;10429348;28;20243;-29
2021/03/17 16:57:35;;;;;;;2.83;1.30;;;21.40;45.30;;;;;;10424416;28;20711;-28
2021/03/17 17:02:56;;;;;;;1.90;1.20;;;21.40;45.60;;;;;;10445041;28;20225;-29
2021/03/17 17:08:19;;;;;;;2.53;1.17;;;21.40;45.50;;;;;;10424776;28;20201;-28
2021/03/17 17:13:40;;;;;;;2.30;1.10;;;21.40;45.30;;;;;;10451815;28;20266;-28
2021/03/17 17:19:02;;;;;;;2.00;1.30;;;21.40;45.30;;;;;;10417374;28;20774;-28
2021/03/17 17:24:24;;;;;;;2.23;1.17;;;21.30;45.50;;;;;;10452060;28;20577;-28
2021/03/17 17:29:46;;;;;;;1.77;1.37;;;21.30;45.50;;;;;;10448434;28;20695;-28
2021/03/17 17:35:09;;;;;;;3.10;1.20;;;21.30;45.50;;;;;;10402621;28;20214;-29
2021/03/17 17:40:34;;;;;;;2.00;1.10;;;21.30;45.50;;;;;;10417824;28;20210;-28
2021/03/17 17:45:56;;;;;;;1.73;1.30;;;21.30;45.50;;;;;;10391732;28;20596;-28
2021/03/17 17:51:18;;;;;;;2.37;1.20;;;21.20;45.70;;;;;;10415710;28;20233;-28
2021/03/17 17:56:41;;;;;;;2.10;1.30;;;21.20;45.80;;;;;;10417758;28;20750;-29
2021/03/17 18:02:03;;;;;;;2.10;1.13;;;21.20;45.80;;;;;;10397360;28;20665;-28
2021/03/17 18:07:24;;;;;;;1.40;1.10;;;21.30;45.70;;;;;;10382886;28;20351;-28
2021/03/17 18:12:47;;;;;;;1.93;1.20;;;21.20;45.70;;;;;;10408466;28;20226;-28
2021/03/17 18:18:11;;;;;;;1.50;1.07;;;21.10;46.60;;;;;;10449828;28;20672;-30
2021/03/17 18:23:32;;;;;;;1.63;1.20;;;21.10;46.10;;;;;;10445723;28;20225;-24
2021/03/17 18:28:55;;;;;;;2.00;1.23;;;21.20;46.00;;;;;;10367898;28;20264;-28
2021/03/17 18:34:16;;;;;;;2.90;1.20;;;21.30;46.60;;;;;;10419346;28;20261;-28
2021/03/17 18:39:39;;;;;;;2.37;1.27;;;21.30;46.20;;;;;;10425551;28;20201;-29
2021/03/17 18:45:01;;;;;;;1.30;1.20;;;21.30;46.10;;;;;;10445764;28;20213;-29
2021/03/17 18:50:25;;;;;;;1.73;1.37;;;21.20;46.40;;;;;;10421826;28;20205;-28
2021/03/17 18:55:46;;;;;;;2.63;1.60;;;21.30;46.40;;;;;;10416435;28;20259;-30
2021/03/17 19:01:09;;;;;;;1.63;1.30;;;21.30;46.30;;;;;;10442053;28;20217;-28
2021/03/17 19:06:31;;;;;;;3.20;1.40;;;21.40;46.40;;;;;;10422349;28;20221;-28
2021/03/17 19:11:52;;;;;;;5.13;1.53;;;21.40;46.30;;;;;;10445037;28;20212;-28
2021/03/17 19:17:15;;;;;;;1.93;1.47;;;21.40;46.40;;;;;;10449710;28;20193;-27
2021/03/17 19:22:37;;;;;;;4.27;1.70;;;21.30;46.50;;;;;;10435375;28;20708;-28
2021/03/17 19:28:00;;;;;;;2.23;1.70;;;21.40;46.50;;;;;;10448960;28;20200;-28
2021/03/17 19:33:27;;;;;;;3.00;1.70;;;21.60;45.90;;;;;;10431494;28;20222;-27
2021/03/17 19:38:49;;;;;;;3.13;1.80;;;21.60;45.90;;;;;;10409194;28;20567;-27
2021/03/17 19:44:11;;;;;;;1.90;1.70;;;21.60;45.90;;;;;;10437522;28;20221;-29
2021/03/17 19:49:34;;;;;;;2.10;1.40;;;21.60;46.00;;;;;;10439184;28;21220;-27
2021/03/17 19:54:55;;;;;;;4.83;1.77;;;21.50;46.00;;;;;;10453299;28;20221;-28
2021/03/17 20:00:20;;;;;;;2.73;1.60;;;21.50;46.10;;;;;;10413541;28;20198;-28
2021/03/17 20:05:43;;;;;;;2.67;1.60;;;21.60;45.90;;;;;;10414959;28;20638;-28
2021/03/17 20:11:05;;;;;;;3.40;1.47;;;21.70;45.70;;;;;;10412215;28;20217;-28
2021/03/17 20:16:27;;;;;;;2.43;1.90;;;21.70;45.50;;;;;;10400903;28;20637;-26
2021/03/17 20:21:49;;;;;;;3.47;1.70;;;21.80;45.30;;;;;;10422083;28;20209;-28
2021/03/17 20:27:11;;;;;;;2.63;1.80;;;21.90;45.10;;;;;;10455127;28;20189;-29
2021/03/17 20:32:33;;;;;;;2.53;1.90;;;21.90;44.90;;;;;;10431369;28;20209;-28
2021/03/17 20:37:58;;;;;;;2.63;1.80;;;22.00;44.90;;;;;;10448657;28;20224;-29
2021/03/17 20:43:20;;;;;;;2.57;1.70;;;22.00;44.70;;;;;;10423693;28;20233;-28
2021/03/17 20:48:42;;;;;;;2.90;1.80;;;22.00;44.70;;;;;;10372068;28;20282;-28
2021/03/17 20:54:05;;;;;;;3.40;2.00;;;22.10;44.60;;;;;;10371554;28;20694;-28
2021/03/17 20:59:27;;;;;;;2.00;1.80;;;22.10;44.50;;;;;;10421569;28;20204;-29
2021/03/17 21:04:49;;;;;;;1.77;1.67;;;22.20;44.40;;;;;;10390027;28;20230;-27
2021/03/17 21:10:12;;;;;;;2.70;2.13;;;22.20;44.30;;;;;;10403448;28;20197;-27
2021/03/17 21:15:34;;;;;;;2.20;1.90;;;22.20;44.20;;;;;;10404807;28;20201;-28
2021/03/17 21:20:56;;;;;;;3.47;1.83;;;22.30;44.20;;;;;;10432594;28;20225;-29
2021/03/17 21:26:19;;;;;;;2.97;1.90;;;22.20;44.20;;;;;;10372374;28;20276;-30
2021/03/17 21:31:41;;;;;;;1.90;1.70;;;22.20;44.40;;;;;;10392406;28;20212;-29
2021/03/17 21:37:03;;;;;;;4.07;1.90;;;22.20;44.30;;;;;;10440019;28;20200;-29
2021/03/17 21:42:25;;;;;;;2.17;1.80;;;22.20;44.40;;;;;;10452500;28;20266;-28
2021/03/17 21:47:47;;;;;;;2.40;1.90;;;22.10;44.70;;;;;;10452628;28;20201;-30
2021/03/17 21:53:10;;;;;;;2.53;1.83;;;22.00;44.80;;;;;;10381998;28;20239;-29
2021/03/17 21:58:33;;;;;;;2.13;1.73;;;21.90;45.00;;;;;;10412249;28;20198;-29
2021/03/17 22:03:55;;;;;;;2.57;2.10;;;21.80;45.30;;;;;;10391420;28;20227;-28
2021/03/17 22:09:16;;;;;;;2.20;1.80;;;21.70;45.50;;;;;;10369594;28;20224;-28
2021/03/17 22:14:39;;;;;;;3.50;2.07;;;21.70;45.50;;;;;;10369983;28;20218;-29
2021/03/17 22:20:01;;;;;;;3.47;1.83;;;21.70;45.40;;;;;;10414148;28;20616;-30
2021/03/17 22:25:22;;;;;;;2.40;1.87;;;21.70;45.30;;;;;;10440175;28;20213;-28
2021/03/17 22:30:47;;;;;;;2.13;1.80;;;21.80;45.20;;;;;;10449975;28;20216;-28
2021/03/17 22:36:09;;;;;;;2.20;1.93;;;21.50;45.50;;;;;;10451524;28;20185;-28
2021/03/17 22:41:31;;;;;;;2.37;1.90;;;21.30;46.00;;;;;;10451227;28;20216;-28
2021/03/17 22:46:53;;;;;;;2.00;1.80;;;21.20;46.30;;;;;;10451095;28;20235;-28
2021/03/17 22:52:16;;;;;;;2.10;1.70;;;21.10;46.50;;;;;;10390907;28;20921;-28
2021/03/17 22:57:37;;;;;;;2.87;1.97;;;21.10;46.70;;;;;;10408102;28;20198;-29
2021/03/17 23:03:00;;;;;;;1.80;1.70;;;21.00;46.80;;;;;;10416669;28;20272;-27
2021/03/17 23:08:26;;;;;;;2.20;1.93;;;20.90;47.60;;;;;;10411016;28;20204;-28
2021/03/17 23:13:50;;;;;;;1.97;1.60;;;20.90;47.10;;;;;;10411193;28;20715;-27
2021/03/17 23:19:14;;;;;;;3.10;1.97;;;20.80;47.00;;;;;;10433704;28;20195;-28
2021/03/17 23:24:39;;;;;;;4.37;1.87;;;20.80;47.20;;;;;;10415702;28;20738;-29
2021/03/17 23:30:10;;;;;;;2.10;1.63;;;20.70;47.30;;;;;;10416401;28;20701;-28
2021/03/17 23:35:35;;;;;;;2.33;1.90;;;20.70;47.30;;;;;;10417067;28;20190;-29
2021/03/17 23:41:00;;;;;;;3.27;1.87;;;20.70;47.30;;;;;;10423982;28;20232;-28
2021/03/17 23:46:22;;;;;;;2.50;1.97;;;20.70;47.30;;;;;;10375368;28;20211;-27
2021/03/17 23:51:45;;;;;;;2.47;1.70;;;20.70;47.40;;;;;;10403502;28;20237;-29
2021/03/17 23:57:07;;;;;;;1.70;1.60;;;20.60;47.50;;;;;;10374666;28;20202;-29
